Porecatu, Brazil
Current Conditions -  °F | °C
As of 7:00 PM on Wednesday 22 Oct 2014 (Local Time) from SBLO Reporting Station
Few Clouds Few Clouds  
Wind Chill: 84°   Ceiling: Unl
Heat Index: 84°   Visibility: 6mi
Dew Point: 59°   Wind: 12mph
Humidity: 42%   Direction: 130°SE
Pressure: 30"   Gusts: NA
Location:  22.76°S, 51.38°W
Report Text: SBLO 222100Z 13010KT 9999 FEW025 29/15 Q1016
Loading
Personal Weather Stations






























Interactive Weather Map
Tropical Storm Tracking
New forecast layout! Learn more

10-Day Weather Forecast

Advertisements
Track Severe Weather on mobile